createdAt,value
2023-04-12T00:00:39.773Z,70.63
2023-04-12T00:01:39.380Z,70.73
2023-04-12T00:02:39.739Z,71.04
2023-04-12T00:03:40.370Z,70.94
2023-04-12T00:04:40.949Z,70.94
2023-04-12T00:05:40.743Z,70.63
2023-04-12T00:06:40.138Z,70.84
2023-04-12T00:07:40.796Z,71.48
2023-04-12T00:08:40.421Z,71.14
2023-04-12T00:09:40.650Z,71.45
2023-04-12T00:10:40.830Z,71.35
2023-04-12T00:11:42.751Z,71.97
2023-04-12T00:12:41.133Z,72.17
2023-04-12T00:13:41.307Z,72.17
2023-04-12T00:14:41.502Z,72.17
2023-04-12T00:15:41.740Z,71.76
2023-04-12T00:16:41.821Z,72.20
2023-04-12T00:17:42.819Z,72.20
2023-04-12T00:18:42.114Z,72.51
2023-04-12T00:19:42.330Z,72.00
2023-04-12T00:20:43.254Z,72.20
2023-04-12T00:21:43.257Z,72.99
2023-04-12T00:22:43.748Z,72.72
2023-04-12T00:23:42.993Z,72.92
2023-04-12T00:24:43.154Z,72.99
2023-04-12T00:25:43.307Z,73.19
2023-04-12T00:26:43.463Z,73.02
2023-04-12T00:27:43.613Z,73.30
2023-04-12T00:28:43.759Z,73.30
2023-04-12T00:29:43.897Z,73.23
2023-04-12T00:30:44.100Z,73.10
2023-04-12T00:31:44.234Z,73.30
2023-04-12T00:32:44.321Z,73.10
2023-04-12T00:33:45.753Z,73.30
2023-04-12T00:34:45.287Z,73.91
2023-04-12T00:35:44.869Z,73.81
2023-04-12T00:36:45.794Z,73.91
2023-04-12T00:37:45.756Z,73.61
2023-04-12T00:38:45.413Z,74.02
2023-04-12T00:39:47.120Z,74.32
2023-04-12T00:40:45.766Z,73.81
2023-04-12T00:41:46.789Z,74.12
2023-04-12T00:42:46.221Z,74.32
2023-04-12T00:43:46.397Z,74.22
2023-04-12T00:44:46.594Z,74.53
2023-04-12T00:45:47.620Z,74.32
2023-04-12T00:46:48.313Z,74.22
2023-04-12T00:47:47.803Z,74.43
2023-04-12T00:48:47.793Z,74.60
2023-04-12T00:49:48.297Z,74.43
2023-04-12T00:50:47.489Z,74.43
2023-04-12T00:51:48.260Z,74.63
2023-04-12T00:52:48.625Z,74.84
2023-04-12T00:53:48.152Z,74.74
2023-04-12T00:54:49.331Z,74.91
2023-04-12T00:55:49.252Z,74.43
2023-04-12T00:56:48.666Z,74.63
2023-04-12T00:57:48.845Z,75.04
2023-04-12T00:58:49.998Z,75.15
2023-04-12T00:59:50.260Z,75.45
2023-04-12T01:00:50.517Z,75.04
2023-04-12T01:01:49.582Z,74.91
2023-04-12T01:02:49.835Z,74.94
2023-04-12T01:03:49.985Z,75.35
2023-04-12T01:04:50.031Z,75.15
2023-04-12T01:05:50.208Z,76.07
2023-04-12T01:06:50.366Z,75.66
2023-04-12T01:07:51.253Z,75.45
2023-04-12T01:08:51.302Z,75.56
2023-04-12T01:09:50.988Z,75.66
2023-04-12T01:10:51.156Z,75.45
2023-04-12T01:11:53.259Z,75.62
2023-04-12T01:12:51.502Z,75.42
2023-04-12T01:13:53.254Z,75.45
2023-04-12T01:14:51.772Z,76.07
2023-04-12T01:15:52.001Z,76.17
2023-04-12T01:16:52.754Z,75.66
2023-04-12T01:17:52.458Z,76.58
2023-04-12T01:18:52.517Z,76.58
2023-04-12T01:19:53.300Z,76.58
2023-04-12T01:20:53.694Z,76.79
2023-04-12T01:21:52.981Z,77.20
2023-04-12T01:22:53.818Z,78.12
2023-04-12T01:23:53.345Z,77.85
2023-04-12T01:24:53.519Z,78.23
2023-04-12T01:25:54.277Z,78.16
2023-04-12T01:26:54.770Z,78.57
2023-04-12T01:27:54.045Z,78.47
2023-04-12T01:28:54.208Z,78.88
2023-04-12T01:29:54.375Z,78.67
2023-04-12T01:30:56.797Z,79.80
2023-04-12T01:31:54.812Z,79.74
2023-04-12T01:32:54.940Z,80.05
2023-04-12T01:33:55.204Z,80.01
2023-04-12T01:34:55.229Z,79.94
2023-04-12T01:35:56.769Z,80.05
2023-04-12T01:36:56.260Z,80.56
2023-04-12T01:37:55.756Z,80.66
2023-04-12T01:38:55.948Z,80.46
2023-04-12T01:39:56.181Z,80.97
2023-04-12T01:40:56.351Z,81.18
2023-04-12T01:41:56.512Z,81.18
2023-04-12T01:42:56.687Z,81.18
2023-04-12T01:43:57.944Z,81.93
2023-04-12T01:44:57.085Z,81.90
2023-04-12T01:45:57.328Z,82.82
2023-04-12T01:46:58.303Z,82.62
2023-04-12T01:47:57.714Z,82.04
2023-04-12T01:48:58.765Z,82.96
2023-04-12T01:49:58.055Z,82.24
2023-04-12T01:50:58.301Z,82.86
2023-04-12T01:51:59.768Z,82.96
2023-04-12T01:52:59.267Z,82.45
2023-04-12T01:53:59.002Z,82.34
2023-04-12T01:54:59.050Z,83.58
2023-04-12T01:55:59.775Z,83.37
2023-04-12T01:56:59.434Z,83.48
2023-04-12T01:57:59.578Z,83.68
2023-04-12T01:59:00.282Z,83.78
2023-04-12T02:00:01.328Z,83.68
2023-04-12T02:01:00.129Z,83.37
2023-04-12T02:02:00.828Z,83.27
2023-04-12T02:03:00.681Z,83.27
2023-04-12T02:04:01.743Z,83.89
2023-04-12T02:05:00.858Z,84.40
2023-04-12T02:06:01.777Z,84.50
2023-04-12T02:07:01.770Z,83.78
2023-04-12T02:08:01.265Z,84.64
2023-04-12T02:09:01.413Z,84.50
2023-04-12T02:10:01.554Z,85.12
2023-04-12T02:11:02.739Z,84.81
2023-04-12T02:12:02.773Z,85.63
2023-04-12T02:13:02.799Z,85.22
2023-04-12T02:14:02.194Z,85.68
2023-04-12T02:15:02.418Z,85.68
2023-04-12T02:16:04.140Z,85.36
2023-04-12T02:17:02.788Z,86.60
2023-04-12T02:18:02.967Z,86.50
2023-04-12T02:19:04.277Z,86.50
2023-04-12T02:20:03.252Z,86.40
2023-04-12T02:21:04.328Z,86.19
2023-04-12T02:22:03.589Z,86.91
2023-04-12T02:23:04.313Z,86.60
2023-04-12T02:24:04.328Z,87.01
2023-04-12T02:25:04.640Z,86.70
2023-04-12T02:26:04.283Z,87.32
2023-04-12T02:27:05.273Z,86.91
2023-04-12T02:28:04.617Z,86.95
2023-04-12T02:29:04.769Z,88.18
2023-04-12T02:30:05.774Z,88.08
2023-04-12T02:31:05.186Z,87.52
2023-04-12T02:32:05.341Z,88.04
2023-04-12T02:33:05.528Z,88.04
2023-04-12T02:34:05.675Z,88.04
2023-04-12T02:35:05.814Z,87.98
2023-04-12T02:36:06.813Z,87.98
2023-04-12T02:37:06.095Z,88.49
2023-04-12T02:38:07.144Z,87.77
2023-04-12T02:39:06.387Z,87.87
2023-04-12T02:40:06.574Z,87.98
2023-04-12T02:41:06.770Z,88.59
2023-04-12T02:42:06.923Z,88.24
2023-04-12T02:43:07.342Z,88.14
2023-04-12T02:44:07.265Z,88.90
2023-04-12T02:45:07.429Z,88.35
2023-04-12T02:46:08.358Z,88.49
2023-04-12T02:47:07.768Z,88.39
2023-04-12T02:48:09.840Z,88.39
2023-04-12T02:49:08.783Z,87.87
2023-04-12T02:50:08.330Z,87.87
2023-04-12T02:51:08.498Z,88.18
2023-04-12T02:52:09.315Z,88.49
2023-04-12T02:53:08.856Z,88.49
2023-04-12T02:54:09.033Z,87.98
2023-04-12T02:55:09.199Z,87.98
2023-04-12T02:56:09.826Z,87.87
2023-04-12T02:57:10.316Z,88.18
2023-04-12T02:58:09.728Z,88.29
2023-04-12T02:59:09.932Z,87.98
2023-04-12T03:00:10.120Z,88.08
2023-04-12T03:01:11.326Z,88.39
2023-04-12T03:02:10.513Z,88.29
2023-04-12T03:03:11.477Z,88.29
2023-04-12T03:04:12.391Z,88.39
2023-04-12T03:05:11.000Z,88.70
2023-04-12T03:06:11.787Z,88.49
2023-04-12T03:07:11.831Z,88.70
2023-04-12T03:08:11.479Z,88.70
2023-04-12T03:09:11.666Z,88.39
2023-04-12T03:10:11.821Z,87.98
2023-04-12T03:11:12.819Z,89.11
2023-04-12T03:12:12.176Z,89.31
2023-04-12T03:13:12.305Z,89.31
2023-04-12T03:14:13.286Z,88.80
2023-04-12T03:15:13.800Z,89.42
2023-04-12T03:16:13.315Z,89.42
2023-04-12T03:17:12.957Z,89.25
2023-04-12T03:18:14.289Z,89.25
2023-04-12T03:19:13.278Z,90.28
2023-04-12T03:20:14.287Z,89.36
2023-04-12T03:21:13.546Z,89.73
2023-04-12T03:22:13.696Z,89.42
2023-04-12T03:23:13.849Z,90.18
2023-04-12T03:24:14.797Z,89.56
2023-04-12T03:25:15.808Z,90.28
2023-04-12T03:26:14.302Z,90.18
2023-04-12T03:27:15.324Z,89.87
2023-04-12T03:28:14.720Z,90.49
2023-04-12T03:29:15.823Z,90.18
2023-04-12T03:30:15.073Z,90.08
2023-04-12T03:31:15.315Z,90.39
2023-04-12T03:32:17.290Z,90.18
2023-04-12T03:33:15.536Z,90.08
2023-04-12T03:34:15.694Z,89.97
2023-04-12T03:35:15.870Z,90.80
2023-04-12T03:36:16.359Z,90.59
2023-04-12T03:37:16.318Z,90.18
2023-04-12T03:38:17.527Z,90.80
2023-04-12T03:39:17.293Z,90.59
2023-04-12T03:40:19.155Z,90.49
2023-04-12T03:41:17.022Z,91.21
2023-04-12T03:42:31.699Z,90.59
2023-04-12T03:43:20.289Z,90.39
2023-04-12T03:44:18.334Z,90.80
2023-04-12T03:45:17.739Z,91.25
2023-04-12T03:46:17.973Z,91.15
2023-04-12T03:47:18.079Z,90.33
2023-04-12T03:48:18.846Z,91.25
2023-04-12T03:49:18.578Z,91.00
2023-04-12T03:50:20.290Z,91.21
2023-04-12T03:51:18.777Z,91.11
2023-04-12T03:52:18.935Z,90.39
2023-04-12T03:53:19.080Z,90.69
2023-04-12T03:54:19.281Z,90.22
2023-04-12T03:55:19.430Z,90.49
2023-04-12T03:56:19.585Z,90.69
2023-04-12T03:57:19.729Z,90.90
2023-04-12T03:58:20.830Z,90.90
2023-04-12T03:59:20.097Z,90.69
2023-04-12T04:00:20.254Z,90.84
2023-04-12T04:01:20.412Z,90.59
2023-04-12T04:02:22.418Z,90.59
2023-04-12T04:03:20.755Z,90.49
2023-04-12T04:04:21.148Z,90.28
2023-04-12T04:05:21.801Z,90.49
2023-04-12T04:06:21.801Z,90.28
2023-04-12T04:07:21.440Z,90.73
2023-04-12T04:08:22.305Z,90.80
2023-04-12T04:09:21.830Z,90.28
2023-04-12T04:10:21.985Z,90.80
2023-04-12T04:11:22.145Z,90.80
2023-04-12T04:12:22.961Z,90.80
2023-04-12T04:13:23.512Z,90.39
2023-04-12T04:14:23.302Z,90.28
2023-04-12T04:15:22.811Z,90.28
2023-04-12T04:16:23.949Z,90.80
2023-04-12T04:17:23.257Z,90.39
2023-04-12T04:18:23.365Z,90.28
2023-04-12T04:19:24.805Z,90.28
2023-04-12T04:20:25.432Z,90.49
2023-04-12T04:21:24.364Z,91.00
2023-04-12T04:22:23.990Z,90.80
2023-04-12T04:23:24.166Z,90.69
2023-04-12T04:24:24.315Z,90.69
2023-04-12T04:25:24.475Z,90.28
2023-04-12T04:26:24.709Z,90.43
2023-04-12T04:27:24.902Z,90.49
2023-04-12T04:28:25.838Z,90.49
2023-04-12T04:29:25.207Z,90.53
2023-04-12T04:30:25.355Z,91.00
2023-04-12T04:31:25.500Z,90.90
2023-04-12T04:32:25.761Z,90.69
2023-04-12T04:33:25.790Z,91.31
2023-04-12T04:34:26.816Z,91.11
2023-04-12T04:35:27.821Z,91.62
2023-04-12T04:36:27.305Z,90.90
2023-04-12T04:37:27.318Z,91.31
2023-04-12T04:38:26.578Z,91.42
2023-04-12T04:39:27.475Z,91.21
2023-04-12T04:40:27.859Z,91.31
2023-04-12T04:41:27.804Z,91.31
2023-04-12T04:42:27.316Z,91.36
2023-04-12T04:43:27.462Z,91.93
2023-04-12T04:44:28.355Z,92.29
2023-04-12T04:45:27.847Z,91.83
2023-04-12T04:46:27.910Z,91.15
2023-04-12T04:47:28.093Z,91.52
2023-04-12T04:48:28.184Z,91.83
2023-04-12T04:49:28.337Z,91.42
2023-04-12T04:50:30.324Z,91.42
2023-04-12T04:51:29.316Z,91.11
2023-04-12T04:52:28.932Z,91.31
2023-04-12T04:53:29.088Z,91.31
2023-04-12T04:54:29.848Z,91.31
2023-04-12T04:55:29.866Z,91.31
2023-04-12T04:56:29.603Z,91.83
2023-04-12T04:57:29.741Z,91.62
2023-04-12T04:58:29.891Z,91.83
2023-04-12T04:59:30.036Z,91.52
2023-04-12T05:00:30.187Z,91.62
2023-04-12T05:01:30.339Z,91.47
2023-04-12T05:02:31.447Z,90.90
2023-04-12T05:03:31.127Z,90.90
2023-04-12T05:04:31.363Z,91.21
2023-04-12T05:05:32.038Z,91.00
2023-04-12T05:06:31.818Z,91.38
2023-04-12T05:07:31.448Z,91.31
2023-04-12T05:08:31.605Z,90.80
2023-04-12T05:09:31.768Z,90.80
2023-04-12T05:10:31.893Z,91.21
2023-04-12T05:11:32.028Z,90.59
2023-04-12T05:12:32.173Z,90.39
2023-04-12T05:13:32.383Z,90.34
2023-04-12T05:14:44.453Z,90.18
2023-04-12T05:15:34.785Z,90.66
2023-04-12T05:16:32.959Z,90.75
2023-04-12T05:17:33.058Z,90.45
2023-04-12T05:18:33.250Z,90.66
2023-04-12T05:19:33.431Z,90.24
2023-04-12T05:20:33.612Z,90.86
2023-04-12T05:21:33.824Z,90.20
2023-04-12T05:22:35.316Z,90.03
2023-04-12T05:23:34.853Z,89.83
2023-04-12T05:24:34.398Z,90.24
2023-04-12T05:25:34.603Z,89.94
2023-04-12T05:26:34.754Z,90.18
2023-04-12T05:27:35.822Z,90.34
2023-04-12T05:28:35.115Z,90.75
2023-04-12T05:29:35.327Z,90.55
2023-04-12T05:30:36.400Z,90.45
2023-04-12T05:31:36.309Z,90.14
2023-04-12T05:32:35.848Z,90.86
2023-04-12T05:33:36.037Z,90.14
2023-04-12T05:34:36.238Z,90.75
2023-04-12T05:35:36.413Z,90.69
2023-04-12T05:36:36.646Z,90.18
2023-04-12T05:37:36.819Z,90.14
2023-04-12T05:38:36.959Z,90.03
2023-04-12T05:39:37.125Z,90.75
2023-04-12T05:40:37.296Z,90.34
2023-04-12T05:41:39.316Z,90.55
2023-04-12T05:42:37.693Z,90.45
2023-04-12T05:43:38.981Z,90.86
2023-04-12T05:44:38.120Z,90.86
2023-04-12T05:45:38.277Z,90.90
2023-04-12T05:46:38.612Z,91.58
2023-04-12T05:47:39.412Z,91.68
2023-04-12T05:48:38.726Z,91.06
2023-04-12T05:49:38.909Z,91.62
2023-04-12T05:50:40.321Z,92.14
2023-04-12T05:51:41.665Z,92.50
2023-04-12T05:52:40.398Z,92.30
2023-04-12T05:53:39.567Z,92.61
2023-04-12T05:54:39.734Z,92.40
2023-04-12T05:55:39.893Z,92.20
2023-04-12T05:56:40.059Z,93.33
2023-04-12T05:57:40.230Z,92.71
2023-04-12T05:58:40.423Z,91.47
2023-04-12T05:59:40.688Z,92.61
2023-04-12T06:00:41.362Z,92.55
2023-04-12T06:01:40.931Z,93.37
2023-04-12T06:02:41.224Z,93.37
2023-04-12T06:03:41.336Z,93.16
2023-04-12T06:04:49.993Z,93.99
2023-04-12T06:05:43.544Z,93.58
2023-04-12T06:06:41.690Z,94.09
2023-04-12T06:07:42.870Z,94.51
2023-04-12T06:08:43.329Z,94.40
2023-04-12T06:09:42.274Z,94.51
2023-04-12T06:10:42.470Z,94.55
2023-04-12T06:11:42.658Z,95.27
2023-04-12T06:12:42.876Z,95.95
2023-04-12T06:13:42.952Z,95.89
2023-04-12T06:14:43.832Z,95.53
2023-04-12T06:15:43.902Z,96.09
2023-04-12T06:16:43.497Z,95.89
2023-04-12T06:17:43.779Z,96.20
2023-04-12T06:18:43.896Z,96.09
2023-04-12T06:19:44.082Z,96.20
2023-04-12T06:20:44.278Z,96.30
2023-04-12T06:21:44.445Z,96.81
2023-04-12T06:22:44.647Z,96.20
2023-04-12T06:23:45.329Z,96.61
2023-04-12T06:24:44.979Z,96.92
2023-04-12T06:25:47.336Z,97.02
2023-04-12T06:26:45.336Z,97.02
2023-04-12T06:27:45.567Z,96.77
2023-04-12T06:28:45.768Z,96.92
2023-04-12T06:29:46.015Z,97.23
2023-04-12T06:30:46.211Z,97.08
2023-04-12T06:31:46.454Z,96.61
2023-04-12T06:32:46.600Z,97.02
2023-04-12T06:33:46.721Z,97.90
2023-04-12T06:34:46.900Z,98.21
2023-04-12T06:35:47.204Z,97.64
2023-04-12T06:36:47.252Z,98.21
2023-04-12T06:37:49.330Z,97.18
2023-04-12T06:38:48.836Z,96.77
2023-04-12T06:39:47.863Z,97.33
2023-04-12T06:40:48.045Z,98.05
2023-04-12T06:41:48.837Z,97.95
2023-04-12T06:42:48.380Z,98.05
2023-04-12T06:43:48.648Z,98.00
2023-04-12T06:44:50.831Z,97.85
2023-04-12T06:45:48.993Z,97.95
2023-04-12T06:46:49.196Z,98.05
2023-04-12T06:47:49.359Z,98.77
2023-04-12T06:48:49.549Z,97.95
2023-04-12T06:49:50.757Z,98.77
2023-04-12T06:50:49.938Z,98.57
2023-04-12T06:51:50.161Z,98.57
2023-04-12T06:52:51.337Z,98.67
2023-04-12T06:53:50.475Z,99.14
2023-04-12T06:54:50.712Z,98.88
2023-04-12T06:55:50.904Z,98.88
2023-04-12T06:56:51.142Z,99.08
2023-04-12T06:57:51.225Z,98.67
2023-04-12T06:58:53.340Z,99.24
2023-04-12T06:59:51.598Z,99.49
2023-04-12T07:00:51.828Z,98.77
2023-04-12T07:01:52.084Z,99.49
2023-04-12T07:02:52.936Z,99.49
2023-04-12T07:03:53.402Z,99.99
2023-04-12T07:04:53.343Z,99.24
2023-04-12T07:05:52.733Z,99.55
2023-04-12T07:06:52.894Z,99.44
2023-04-12T07:07:53.034Z,99.70
2023-04-12T07:08:53.934Z,99.99
2023-04-12T07:09:53.392Z,99.55
2023-04-12T07:10:53.543Z,99.34
2023-04-12T07:11:53.701Z,99.44
2023-04-12T07:12:53.885Z,99.99
2023-04-12T07:13:54.037Z,99.86
2023-04-12T07:14:54.842Z,99.99
2023-04-12T07:15:54.673Z,99.99
2023-04-12T07:16:54.751Z,99.99
2023-04-12T07:17:54.848Z,99.55
2023-04-12T07:18:55.145Z,99.44
2023-04-12T07:19:56.336Z,99.76
2023-04-12T07:20:56.205Z,99.86
2023-04-12T07:21:55.565Z,99.99
2023-04-12T07:22:55.697Z,99.99
2023-04-12T07:23:56.012Z,99.99
2023-04-12T07:24:56.000Z,99.99
2023-04-12T07:25:56.156Z,99.99
2023-04-12T07:26:57.336Z,99.65
2023-04-12T07:27:57.374Z,99.99
2023-04-12T07:28:56.904Z,99.99
2023-04-12T07:29:56.873Z,99.99
2023-04-12T07:30:57.047Z,99.86
2023-04-12T07:31:57.212Z,99.99
2023-04-12T07:33:08.385Z,99.99
2023-04-12T07:33:59.705Z,99.99
2023-04-12T07:34:59.840Z,99.99
2023-04-12T07:35:57.968Z,99.99
2023-04-12T07:36:58.840Z,99.60
2023-04-12T07:37:58.369Z,99.87
2023-04-12T07:39:00.883Z,99.46
2023-04-12T07:39:58.816Z,99.60
2023-04-12T07:40:59.894Z,99.97
2023-04-12T07:41:59.063Z,99.15
2023-04-12T07:42:59.294Z,98.74
2023-04-12T07:44:00.356Z,99.25
2023-04-12T07:44:59.644Z,99.25
2023-04-12T07:45:59.848Z,98.94
2023-04-12T07:47:00.126Z,98.94
2023-04-12T07:48:00.219Z,99.41
2023-04-12T07:49:00.400Z,98.94
2023-04-12T07:50:00.610Z,98.59
2023-04-12T07:51:00.786Z,97.66
2023-04-12T07:52:01.857Z,98.90
2023-04-12T07:53:01.849Z,99.21
2023-04-12T07:54:01.892Z,97.87
2023-04-12T07:55:01.922Z,97.45
2023-04-12T07:56:01.701Z,98.79
2023-04-12T07:57:01.934Z,98.75
2023-04-12T07:58:02.846Z,98.96
2023-04-12T07:59:02.277Z,99.26
2023-04-12T08:00:02.515Z,98.44
2023-04-12T08:01:02.596Z,97.62
2023-04-12T08:02:03.029Z,97.25
2023-04-12T08:03:03.158Z,97.66
2023-04-12T08:04:04.626Z,97.72
2023-04-12T08:05:03.415Z,98.65
2023-04-12T08:06:03.667Z,98.13
2023-04-12T08:07:04.350Z,98.65
2023-04-12T08:08:03.897Z,97.52
2023-04-12T08:09:04.108Z,97.57
2023-04-12T08:10:04.279Z,97.72
2023-04-12T08:11:05.396Z,97.78
2023-04-12T08:12:04.637Z,97.67
2023-04-12T08:13:04.795Z,96.59
2023-04-12T08:14:05.026Z,97.92
2023-04-12T08:15:05.863Z,97.67
2023-04-12T08:16:05.478Z,96.95
2023-04-12T08:17:07.220Z,96.69
2023-04-12T08:18:05.769Z,97.06
2023-04-12T08:19:05.859Z,97.67
2023-04-12T08:20:06.895Z,97.67
2023-04-12T08:21:06.150Z,96.44
2023-04-12T08:22:06.303Z,96.55
2023-04-12T08:23:07.446Z,97.57
2023-04-12T08:24:07.360Z,96.91
2023-04-12T08:25:06.748Z,97.89
2023-04-12T08:26:22.901Z,97.83
2023-04-12T08:27:07.851Z,96.97
2023-04-12T08:28:08.860Z,95.84
2023-04-12T08:29:08.370Z,95.84
2023-04-12T08:30:08.409Z,95.89
2023-04-12T08:31:08.412Z,96.15
2023-04-12T08:32:09.905Z,96.78
2023-04-12T08:33:08.911Z,95.70
2023-04-12T08:34:08.291Z,94.58
2023-04-12T08:35:09.396Z,94.37
2023-04-12T08:36:08.701Z,95.15
2023-04-12T08:37:08.796Z,93.25
2023-04-12T08:38:08.939Z,93.77
2023-04-12T08:39:09.116Z,93.57
2023-04-12T08:40:09.333Z,93.26
2023-04-12T08:41:09.448Z,92.96
2023-04-12T08:42:10.357Z,92.44
2023-04-12T08:43:10.991Z,92.90
2023-04-12T08:44:10.027Z,93.20
2023-04-12T08:45:11.358Z,93.71
2023-04-12T08:46:10.357Z,93.62
2023-04-12T08:47:13.439Z,93.41
2023-04-12T08:48:10.667Z,93.30
2023-04-12T08:49:10.849Z,93.55
2023-04-12T08:50:11.059Z,93.55
2023-04-12T08:51:12.365Z,93.35
2023-04-12T08:52:11.897Z,93.76
2023-04-12T08:53:11.545Z,93.80
2023-04-12T08:54:13.864Z,94.05
2023-04-12T08:55:11.869Z,94.52
2023-04-12T08:56:12.028Z,94.36
2023-04-12T08:57:12.229Z,94.15
2023-04-12T08:58:12.391Z,94.05
2023-04-12T08:59:12.558Z,94.36
2023-04-12T09:00:12.707Z,95.07
2023-04-12T09:01:12.858Z,94.98
2023-04-12T09:02:13.117Z,94.98
2023-04-12T09:03:13.563Z,94.77
2023-04-12T09:04:13.527Z,96.41
2023-04-12T09:05:13.706Z,96.35
2023-04-12T09:06:13.865Z,95.94
2023-04-12T09:07:14.874Z,97.28
2023-04-12T09:08:14.220Z,96.92
2023-04-12T09:09:14.866Z,97.17
2023-04-12T09:10:14.495Z,96.51
2023-04-12T09:11:14.662Z,97.64
2023-04-12T09:12:14.940Z,97.23
2023-04-12T09:13:14.979Z,97.74
2023-04-12T09:14:15.123Z,97.33
2023-04-12T09:15:15.320Z,97.13
2023-04-12T09:16:15.458Z,96.72
2023-04-12T09:17:15.656Z,97.23
2023-04-12T09:18:17.399Z,97.70
2023-04-12T09:19:17.108Z,97.91
2023-04-12T09:20:16.122Z,97.29
2023-04-12T09:21:50.340Z,96.67
2023-04-12T09:22:16.965Z,96.37
2023-04-12T09:23:16.584Z,97.49
2023-04-12T09:24:16.736Z,97.55
2023-04-12T09:25:18.921Z,96.47
2023-04-12T09:26:17.913Z,97.60
2023-04-12T09:27:17.272Z,96.42
2023-04-12T09:28:17.432Z,95.95
2023-04-12T09:29:17.621Z,96.57
2023-04-12T09:30:17.843Z,95.70
2023-04-12T09:31:18.969Z,97.24
2023-04-12T09:32:18.960Z,96.01
2023-04-12T09:33:18.363Z,95.50
2023-04-12T09:34:18.568Z,96.42
2023-04-12T09:35:18.840Z,96.38
2023-04-12T09:36:18.833Z,97.40
2023-04-12T09:37:18.959Z,97.20
2023-04-12T09:38:19.134Z,96.73
2023-04-12T09:39:19.310Z,95.91
2023-04-12T09:40:20.425Z,95.81
2023-04-12T09:41:21.520Z,96.32
2023-04-12T09:42:33.316Z,96.42
2023-04-12T09:43:22.170Z,96.32
2023-04-12T09:44:20.313Z,96.42
2023-04-12T09:45:20.521Z,96.83
2023-04-12T09:46:21.466Z,97.24
2023-04-12T09:47:21.003Z,96.79
2023-04-12T09:48:21.916Z,96.83
2023-04-12T09:49:21.330Z,95.50
2023-04-12T09:50:22.469Z,95.50
2023-04-12T09:51:21.753Z,96.63
2023-04-12T09:52:43.856Z,96.06
2023-04-12T09:53:23.882Z,96.22
2023-04-12T09:54:22.258Z,97.45
2023-04-12T09:55:23.001Z,96.32
2023-04-12T09:56:22.590Z,95.70
2023-04-12T09:57:22.777Z,97.09
2023-04-12T09:58:23.946Z,96.42
2023-04-12T09:59:24.045Z,96.32
2023-04-12T10:00:24.011Z,97.04
2023-04-12T10:01:24.956Z,98.33
2023-04-12T10:02:25.076Z,96.22
2023-04-12T10:03:24.054Z,97.50
2023-04-12T10:04:24.383Z,98.22
2023-04-12T10:05:25.172Z,97.56
2023-04-12T10:06:25.436Z,95.72
2023-04-12T10:07:25.589Z,95.76
2023-04-12T10:08:24.877Z,96.44
2023-04-12T10:09:25.063Z,96.38
2023-04-12T10:10:25.233Z,96.95
2023-04-12T10:11:25.464Z,97.36
2023-04-12T10:12:25.531Z,96.39
2023-04-12T10:13:25.722Z,95.37
2023-04-12T10:14:27.420Z,96.14
2023-04-12T10:15:26.950Z,95.06
2023-04-12T10:16:26.375Z,96.08
2023-04-12T10:17:26.525Z,97.06
2023-04-12T10:18:27.284Z,96.45
2023-04-12T10:19:26.820Z,96.25
2023-04-12T10:20:29.598Z,95.12
2023-04-12T10:21:28.187Z,96.25
2023-04-12T10:22:27.350Z,96.45
2023-04-12T10:23:28.454Z,96.66
2023-04-12T10:24:27.745Z,96.66
2023-04-12T10:25:27.918Z,96.86
2023-04-12T10:26:28.082Z,95.02
2023-04-12T10:27:28.935Z,96.19
2023-04-12T10:28:28.442Z,95.37
2023-04-12T10:29:29.490Z,96.13
2023-04-12T10:30:29.544Z,96.39
2023-04-12T10:31:29.024Z,97.11
2023-04-12T10:32:29.122Z,97.31
2023-04-12T10:33:30.050Z,97.31
2023-04-12T10:34:29.413Z,96.29
2023-04-12T10:35:30.160Z,96.25
2023-04-12T10:36:31.473Z,96.45
2023-04-12T10:37:29.893Z,95.43
2023-04-12T10:38:32.440Z,96.20
2023-04-12T10:39:30.956Z,96.77
2023-04-12T10:40:30.340Z,94.82
2023-04-12T10:41:30.568Z,95.03
2023-04-12T10:42:30.760Z,96.05
2023-04-12T10:43:30.964Z,95.03
2023-04-12T10:44:31.151Z,95.85
2023-04-12T10:45:31.335Z,96.21
2023-04-12T10:46:31.510Z,96.31
2023-04-12T10:47:32.535Z,95.45
2023-04-12T10:48:31.933Z,96.11
2023-04-12T10:49:32.020Z,95.86
2023-04-12T10:50:32.813Z,93.67
2023-04-12T10:51:32.345Z,93.02
2023-04-12T10:52:32.478Z,93.38
2023-04-12T10:53:35.798Z,93.89
2023-04-12T10:54:33.481Z,91.85
2023-04-12T10:55:33.994Z,94.09
2023-04-12T10:56:33.342Z,93.22
2023-04-12T10:57:34.392Z,92.91
2023-04-12T10:58:33.553Z,92.04
2023-04-12T10:59:46.944Z,93.57
2023-04-12T11:00:35.998Z,93.67
2023-04-12T11:01:36.708Z,94.85
2023-04-12T11:02:34.465Z,94.24
2023-04-12T11:03:36.056Z,93.52
2023-04-12T11:04:34.674Z,91.89
2023-04-12T11:05:34.743Z,92.91
2023-04-12T11:06:35.302Z,92.35
2023-04-12T11:07:35.484Z,92.08
2023-04-12T11:08:35.138Z,92.84
2023-04-12T11:09:35.976Z,93.05
2023-04-12T11:10:35.541Z,93.92
2023-04-12T11:11:35.693Z,93.25
2023-04-12T11:12:35.896Z,92.33
2023-04-12T11:13:36.070Z,93.35
2023-04-12T11:14:36.283Z,93.45
2023-04-12T11:15:36.453Z,93.05
2023-04-12T11:16:36.650Z,92.19
2023-04-12T11:17:37.929Z,93.00
2023-04-12T11:18:38.072Z,92.96
2023-04-12T11:19:38.455Z,92.29
2023-04-12T11:20:37.374Z,92.54
2023-04-12T11:21:38.495Z,92.29
2023-04-12T11:22:37.820Z,93.57
2023-04-12T11:23:37.992Z,93.16
2023-04-12T11:24:38.186Z,91.94
2023-04-12T11:25:38.360Z,92.91
2023-04-12T11:26:40.440Z,92.20
2023-04-12T11:27:39.441Z,91.28
2023-04-12T11:28:38.836Z,91.69
2023-04-12T11:29:40.447Z,91.33
2023-04-12T11:30:40.943Z,92.76
2023-04-12T11:31:39.620Z,91.43
2023-04-12T11:32:40.484Z,91.63
2023-04-12T11:33:39.770Z,91.67
2023-04-12T11:34:39.943Z,91.78
2023-04-12T11:35:40.135Z,91.98
2023-04-12T11:36:40.983Z,93.05
2023-04-12T11:37:40.993Z,93.45
2023-04-12T11:38:40.686Z,93.15
2023-04-12T11:39:40.764Z,93.55
2023-04-12T11:40:40.899Z,92.64
2023-04-12T11:41:41.068Z,93.29
2023-04-12T11:42:41.261Z,94.42
2023-04-12T11:43:41.947Z,95.03
2023-04-12T11:44:56.122Z,95.34
2023-04-12T11:45:43.784Z,95.70
2023-04-12T11:46:42.443Z,95.70
2023-04-12T11:47:42.964Z,94.78
2023-04-12T11:48:42.239Z,94.27
2023-04-12T11:49:42.943Z,94.48
2023-04-12T11:50:43.945Z,94.78
2023-04-12T11:51:42.829Z,95.04
2023-04-12T11:52:43.002Z,95.00
2023-04-12T11:53:44.942Z,95.31
2023-04-12T11:54:44.444Z,93.84
2023-04-12T11:55:43.465Z,92.41
2023-04-12T11:56:43.644Z,91.28
2023-04-12T11:57:43.833Z,93.22
2023-04-12T11:58:44.947Z,92.87
2023-04-12T11:59:44.253Z,91.50
2023-04-12T12:00:44.394Z,90.79
2023-04-12T12:01:45.555Z,89.61
2023-04-12T12:02:56.050Z,90.69
2023-04-12T12:03:47.654Z,90.53
2023-04-12T12:04:46.082Z,88.28
2023-04-12T12:05:46.405Z,88.12
2023-04-12T12:06:46.702Z,88.88
2023-04-12T12:07:45.471Z,90.10
2023-04-12T12:08:45.656Z,90.35
2023-04-12T12:09:46.454Z,90.86
2023-04-12T12:11:04.010Z,91.11
2023-04-12T12:11:48.101Z,91.57
2023-04-12T12:12:47.051Z,92.23
2023-04-12T12:13:47.510Z,93.25
2023-04-12T12:14:46.809Z,93.76
2023-04-12T12:15:47.050Z,93.45
2023-04-12T12:16:47.133Z,93.35
2023-04-12T12:17:48.003Z,94.42
2023-04-12T12:18:47.908Z,95.19
2023-04-12T12:19:49.458Z,95.39
2023-04-12T12:20:47.861Z,96.15
2023-04-12T12:21:48.069Z,96.87
2023-04-12T12:22:49.953Z,96.97
2023-04-12T12:23:48.968Z,97.28
2023-04-12T12:24:48.630Z,98.40
2023-04-12T12:25:48.823Z,98.04
2023-04-12T12:26:50.455Z,97.28
2023-04-12T12:27:50.526Z,98.24
2023-04-12T12:28:49.985Z,98.81
2023-04-12T12:29:50.456Z,99.02
2023-04-12T12:30:49.867Z,99.73
2023-04-12T12:31:51.097Z,99.18
2023-04-12T12:32:50.292Z,99.58
2023-04-12T12:33:51.465Z,99.38
2023-04-12T12:34:51.332Z,98.77
2023-04-12T12:35:51.452Z,99.48
2023-04-12T12:36:51.973Z,98.77
2023-04-12T12:37:51.131Z,98.40
2023-04-12T12:38:51.539Z,97.94
2023-04-12T12:39:52.502Z,97.74
2023-04-12T12:40:51.650Z,98.80
2023-04-12T12:41:52.011Z,99.99
2023-04-12T12:42:52.084Z,99.82
2023-04-12T12:43:52.310Z,99.99
2023-04-12T12:44:52.508Z,99.99
2023-04-12T12:45:52.741Z,99.99
2023-04-12T12:46:58.693Z,99.99
2023-04-12T12:47:55.135Z,99.68
2023-04-12T12:48:54.025Z,99.93
2023-04-12T12:49:53.427Z,99.78
2023-04-12T12:50:54.021Z,99.99
2023-04-12T12:51:53.679Z,99.99
2023-04-12T12:52:55.976Z,99.52
2023-04-12T12:53:54.092Z,99.99
2023-04-12T12:54:54.260Z,99.99